Time;durP1;ratioP1;P1;durP2;ratioP2;P2;SDS_P1;SDS_P2;PMS_P1;PMS_P2;Temp;Humidity;BMP_temperature;BMP_pressure;BME280_temperature;BME280_humidity;BME280_pressure;Samples;Min_cycle;Max_cycle;Signal;HPM_P1;HPM_P2
2022/09/07 00:01:33;;;;;;;2.70;1.87;;;;;;;19.16;92.91;97904.28;5054210;28;20240;-70
2022/09/07 00:03:59;;;;;;;3.37;2.10;;;;;;;19.13;93.54;97904.81;5053861;28;20283;-70
2022/09/07 00:06:26;;;;;;;6.17;2.00;;;;;;;19.08;93.85;97902.16;5053615;28;20295;-70
2022/09/07 00:08:53;;;;;;;5.93;2.13;;;;;;;19.09;92.21;97900.28;5053797;28;20236;-70
2022/09/07 00:11:19;;;;;;;3.13;2.10;;;;;;;19.08;92.79;97899.47;5053507;28;20267;-70
2022/09/07 00:13:48;;;;;;;4.73;2.07;;;;;;;19.15;91.65;97894.59;5053680;28;20252;-70
2022/09/07 00:16:21;;;;;;;3.07;1.97;;;;;;;19.08;93.33;97885.16;5053371;28;20312;-71
2022/09/07 00:18:47;;;;;;;4.10;2.30;;;;;;;19.07;94.23;97895.16;5053725;28;20252;-70
2022/09/07 00:21:16;;;;;;;4.30;2.20;;;;;;;19.07;91.79;97881.69;5053364;28;20266;-70
2022/09/07 00:23:43;;;;;;;3.57;1.90;;;;;;;19.11;91.72;97880.06;5053361;28;20247;-70
2022/09/07 00:26:16;;;;;;;4.57;1.90;;;;;;;19.10;92.20;97875.72;5053366;28;20247;-70
2022/09/07 00:28:43;;;;;;;3.23;2.10;;;;;;;19.10;91.58;97889.19;5053611;28;20209;-70
2022/09/07 00:31:20;;;;;;;2.83;2.00;;;;;;;19.12;91.13;97870.06;5053237;28;20256;-70
2022/09/07 00:33:48;;;;;;;3.90;2.10;;;;;;;19.15;90.76;97867.66;5053518;28;20252;-70
2022/09/07 00:36:15;;;;;;;4.50;2.13;;;;;;;19.12;92.62;97860.09;5053498;28;20205;-70
2022/09/07 00:38:42;;;;;;;2.63;1.97;;;;;;;19.05;93.55;97851.50;5053496;28;20243;-70
2022/09/07 00:41:09;;;;;;;3.73;2.20;;;;;;;19.04;93.11;97847.19;5053398;28;20225;-70
2022/09/07 00:43:44;;;;;;;5.87;2.37;;;;;;;19.02;93.76;97840.47;5053458;28;20296;-70
2022/09/07 00:46:26;;;;;;;2.70;1.87;;;;;;;18.97;92.69;97843.22;5053424;28;20295;-71
2022/09/07 00:49:12;;;;;;;3.10;2.10;;;;;;;18.97;96.56;97835.13;5053032;28;20628;-70
2022/09/07 00:51:46;;;;;;;3.37;1.90;;;;;;;18.93;95.96;97824.09;5053445;28;20272;-70
2022/09/07 00:54:21;;;;;;;4.83;2.10;;;;;;;19.02;93.85;97824.31;5053325;28;20288;-71
2022/09/07 00:56:51;;;;;;;5.67;2.33;;;;;;;18.90;93.47;97824.66;5052202;28;20189;-70
2022/09/07 00:59:22;;;;;;;4.67;2.20;;;;;;;18.78;95.90;97815.28;5051787;28;20722;-70
2022/09/07 01:01:49;;;;;;;5.53;2.23;;;;;;;18.69;96.91;97820.44;5053021;28;20216;-70
2022/09/07 01:04:16;;;;;;;5.17;2.20;;;;;;;18.76;95.30;97812.06;5052092;28;20232;-71
2022/09/07 01:06:43;;;;;;;4.80;2.10;;;;;;;18.80;94.75;97813.13;5051998;28;20212;-70
2022/09/07 01:09:13;;;;;;;5.27;2.00;;;;;;;18.85;94.21;97813.09;5052782;28;20249;-70
2022/09/07 01:11:42;;;;;;;4.27;2.00;;;;;;;18.94;94.64;97814.94;5052869;28;20583;-70
2022/09/07 01:14:15;;;;;;;3.33;1.90;;;;;;;19.10;89.58;97808.34;5053101;28;20253;-70
2022/09/07 01:17:03;;;;;;;4.17;2.00;;;;;;;19.16;91.56;97806.44;5052697;28;20639;-70
2022/09/07 01:19:36;;;;;;;5.93;2.00;;;;;;;19.19;89.36;97812.06;5052751;28;20264;-71
2022/09/07 01:22:26;;;;;;;3.40;1.73;;;;;;;19.24;89.16;97812.09;5053037;28;20639;-70
2022/09/07 01:25:02;;;;;;;1.57;1.47;;;;;;;19.35;90.29;97808.22;5053641;28;20225;-70
2022/09/07 01:27:46;;;;;;;4.53;1.97;;;;;;;19.41;89.08;97809.81;5052672;28;20232;-71
2022/09/07 01:30:18;;;;;;;3.63;2.27;;;;;;;19.41;87.85;97817.09;5053475;28;20312;-70
2022/09/07 01:32:57;;;;;;;4.53;1.77;;;;;;;19.43;88.46;97812.22;5052340;28;20240;-71
2022/09/07 01:35:48;;;;;;;6.10;2.23;;;;;;;19.49;87.65;97816.47;5052948;28;20190;-71
2022/09/07 01:38:28;;;;;;;4.83;1.90;;;;;;;19.51;88.04;97820.50;5052645;28;20281;-70
2022/09/07 01:41:00;;;;;;;4.17;1.97;;;;;;;19.46;87.56;97828.63;5052571;28;20253;-71
2022/09/07 01:43:37;;;;;;;5.10;1.90;;;;;;;19.50;88.36;97834.28;5052863;28;20205;-70
2022/09/07 01:46:09;;;;;;;3.37;2.20;;;;;;;19.41;87.35;97841.38;5051402;28;20193;-70
2022/09/07 01:48:39;;;;;;;2.67;2.27;;;;;;;19.43;86.50;97840.00;5052588;28;20618;-71
2022/09/07 01:51:06;;;;;;;3.63;2.10;;;;;;;19.42;86.66;97846.44;5052489;28;20724;-70
2022/09/07 01:53:39;;;;;;;5.83;2.10;;;;;;;19.41;88.48;97858.31;5052702;28;20313;-70
2022/09/07 01:56:16;;;;;;;6.10;2.43;;;;;;;19.39;88.36;97848.91;5056236;28;20533;-70
2022/09/07 01:58:53;;;;;;;3.63;2.33;;;;;;;19.30;89.18;97855.97;5056842;28;20221;-71
2022/09/07 02:01:31;;;;;;;4.63;2.20;;;;;;;19.28;88.46;97853.56;5055603;28;20225;-70
2022/09/07 02:04:27;;;;;;;3.93;2.43;;;;;;;19.29;90.68;97855.19;5056294;28;20185;-70
2022/09/07 02:07:06;;;;;;;4.23;2.07;;;;;;;19.24;91.52;97855.22;5055101;28;20287;-70
2022/09/07 02:09:38;;;;;;;4.27;2.57;;;;;;;19.20;95.21;97856.00;5055790;28;20668;-70
2022/09/07 02:12:17;;;;;;;3.97;2.37;;;;;;;19.17;93.90;97857.38;5054627;28;20269;-70
2022/09/07 02:14:49;;;;;;;4.10;2.20;;;;;;;19.16;94.94;97860.34;5054899;28;20300;-70
2022/09/07 02:17:28;;;;;;;5.50;2.10;;;;;;;19.22;92.65;97861.91;5055491;28;20303;-70
2022/09/07 02:20:03;;;;;;;3.63;2.00;;;;;;;19.26;91.60;97855.75;5055745;28;20312;-70
2022/09/07 02:22:34;;;;;;;4.73;2.40;;;;;;;19.25;92.44;97864.09;5056339;28;20258;-70
2022/09/07 02:25:04;;;;;;;4.27;2.03;;;;;;;19.28;90.25;97863.56;5038486;28;20213;-70
2022/09/07 02:27:42;;;;;;;3.73;2.07;;;;;;;19.28;91.78;97864.34;5055449;28;20227;-71
2022/09/07 02:30:10;;;;;;;3.30;2.00;;;;;;;19.35;90.22;97869.41;5056150;28;20256;-70
2022/09/07 02:32:37;;;;;;;1.90;1.70;;;;;;;19.39;90.30;97865.91;5055181;28;20205;-70
2022/09/07 02:35:04;;;;;;;2.43;1.87;;;;;;;19.42;89.79;97870.72;5055419;28;20225;-70
2022/09/07 02:37:31;;;;;;;4.50;2.20;;;;;;;19.40;90.78;97875.59;5054430;28;20237;-70
2022/09/07 02:39:59;;;;;;;3.17;2.17;;;;;;;19.46;88.73;97884.47;5055792;28;20257;-71
2022/09/07 02:42:29;;;;;;;5.17;1.87;;;;;;;19.59;87.05;97902.72;5055414;28;20205;-70
2022/09/07 02:44:55;;;;;;;3.47;1.97;;;;;;;19.63;88.03;97918.06;5055361;28;20209;-70
2022/09/07 02:47:31;;;;;;;4.40;2.17;;;;;;;19.67;86.56;97920.19;5054188;28;20212;-70
2022/09/07 02:50:36;;;;;;;4.07;2.17;;;;;;;19.92;85.38;97939.72;5054835;28;20221;-70
2022/09/07 02:53:09;;;;;;;4.03;2.47;;;;;;;20.03;86.88;97929.66;5050021;28;20205;-70
2022/09/07 02:56:09;;;;;;;4.83;2.87;;;;;;;19.96;87.22;97938.06;5055013;28;20205;-70
2022/09/07 02:58:39;;;;;;;5.53;2.50;;;;;;;19.93;87.92;97932.44;5053986;28;20689;-70
2022/09/07 03:01:11;;;;;;;5.33;2.40;;;;;;;19.97;87.79;97918.06;5054582;28;20252;-70
2022/09/07 03:03:49;;;;;;;2.40;2.10;;;;;;;19.96;86.79;97918.34;5054687;28;20235;-71
2022/09/07 03:06:26;;;;;;;2.73;2.10;;;;;;;20.00;85.83;97924.81;5054537;28;20205;-71
2022/09/07 03:08:56;;;;;;;3.83;2.20;;;;;;;19.97;87.34;97920.78;5053724;28;20271;-71
2022/09/07 03:11:22;;;;;;;4.30;2.40;;;;;;;19.85;87.53;97927.63;5037001;28;20236;-70
2022/09/07 03:13:49;;;;;;;6.40;2.37;;;;;;;19.80;88.33;97928.44;5054644;28;20656;-71
2022/09/07 03:16:15;;;;;;;4.80;2.10;;;;;;;19.92;87.12;97930.78;5054273;28;20244;-71
2022/09/07 03:18:43;;;;;;;5.67;2.50;;;;;;;19.69;89.59;97926.94;5054653;28;20217;-70
2022/09/07 03:21:10;;;;;;;6.97;2.40;;;;;;;19.58;90.53;97921.88;5054497;28;20225;-70
2022/09/07 03:23:37;;;;;;;6.17;2.57;;;;;;;19.58;90.11;97927.25;5054601;28;20291;-70
2022/09/07 03:26:04;;;;;;;5.77;2.40;;;;;;;19.60;88.56;97926.69;5054613;28;20212;-70
2022/09/07 03:28:31;;;;;;;6.67;2.80;;;;;;;19.62;88.47;97929.13;5054475;28;20299;-70
2022/09/07 03:30:58;;;;;;;5.13;2.70;;;;;;;19.58;88.48;97923.47;5054387;28;20316;-71
2022/09/07 03:33:24;;;;;;;4.47;2.43;;;;;;;19.41;91.68;97922.25;5054008;28;20225;-71
2022/09/07 03:36:02;;;;;;;3.93;2.57;;;;;;;19.36;91.30;97914.19;5053758;28;20296;-70
2022/09/07 03:38:30;;;;;;;5.53;2.60;;;;;;;19.23;93.65;97915.59;5054192;28;20199;-70
2022/09/07 03:40:58;;;;;;;4.13;2.60;;;;;;;19.17;94.57;97923.94;5054090;28;20225;-71
2022/09/07 03:43:25;;;;;;;4.93;2.70;;;;;;;19.12;94.22;97924.78;5054068;28;20205;-71
2022/09/07 03:46:00;;;;;;;3.60;2.07;;;;;;;19.04;95.26;97927.22;5054098;28;20247;-70
2022/09/07 03:48:27;;;;;;;5.30;2.57;;;;;;;18.97;96.89;97921.34;5053701;28;20723;-70
2022/09/07 03:50:59;;;;;;;5.53;2.83;;;;;;;18.95;97.92;97918.91;5053594;28;20308;-70
2022/09/07 03:53:25;;;;;;;4.30;2.50;;;;;;;18.86;100.00;97920.56;5053658;28;20688;-70
2022/09/07 03:56:00;;;;;;;3.90;2.30;;;;;;;18.72;100.00;97911.47;5053678;28;20304;-70
2022/09/07 03:58:29;;;;;;;4.77;2.47;;;;;;;18.64;100.00;97922.78;5053568;28;20651;-70
2022/09/07 04:00:56;;;;;;;4.67;2.60;;;;;;;18.62;100.00;97924.13;5053480;28;20653;-70
2022/09/07 04:03:22;;;;;;;3.40;2.53;;;;;;;18.61;100.00;97928.72;5053073;28;20715;-70
2022/09/07 04:05:49;;;;;;;4.50;2.33;;;;;;;18.72;99.60;97922.22;5053463;28;20229;-71
2022/09/07 04:08:15;;;;;;;5.10;2.33;;;;;;;18.66;100.00;97925.22;5053772;28;20292;-70
2022/09/07 04:10:42;;;;;;;4.93;2.77;;;;;;;18.55;100.00;97929.81;5053711;28;20263;-70
2022/09/07 04:13:08;;;;;;;4.70;2.50;;;;;;;18.56;100.00;97938.69;5053446;28;20244;-70
2022/09/07 04:15:35;;;;;;;4.97;2.50;;;;;;;18.53;100.00;97929.28;5053616;28;20251;-71
2022/09/07 04:18:02;;;;;;;4.93;2.70;;;;;;;18.47;100.00;97933.06;5052363;28;20213;-70
2022/09/07 04:20:29;;;;;;;5.50;2.67;;;;;;;18.44;100.00;97933.59;5053046;28;20315;-70
2022/09/07 04:22:56;;;;;;;4.50;2.63;;;;;;;18.41;100.00;97936.81;5053182;28;20296;-70
2022/09/07 04:25:22;;;;;;;4.43;2.37;;;;;;;18.32;100.00;97927.66;5053249;28;20304;-70
2022/09/07 04:27:48;;;;;;;4.97;2.40;;;;;;;18.31;100.00;97934.13;5053338;28;20284;-71
2022/09/07 04:30:15;;;;;;;4.17;2.27;;;;;;;18.34;100.00;97928.25;5052843;28;20308;-70
2022/09/07 04:32:41;;;;;;;5.17;2.93;;;;;;;18.29;100.00;97927.41;5052801;28;20303;-70
2022/09/07 04:35:08;;;;;;;6.17;2.50;;;;;;;18.27;100.00;97934.94;5052845;28;20316;-70
2022/09/07 04:37:35;;;;;;;4.07;2.60;;;;;;;18.27;100.00;97937.66;5053049;28;20227;-70
2022/09/07 04:40:01;;;;;;;4.70;2.80;;;;;;;18.29;100.00;97938.97;5052409;28;20312;-70
2022/09/07 04:42:28;;;;;;;5.90;2.53;;;;;;;18.27;100.00;97934.94;5052505;28;20213;-70
2022/09/07 04:44:54;;;;;;;5.07;2.60;;;;;;;18.31;100.00;97938.69;5052657;28;20229;-70
2022/09/07 04:47:20;;;;;;;7.70;2.77;;;;;;;18.22;100.00;97929.53;5053086;28;20664;-70
2022/09/07 04:49:50;;;;;;;4.13;2.73;;;;;;;18.21;100.00;97933.31;5052710;28;20316;-70
2022/09/07 04:52:17;;;;;;;3.67;2.80;;;;;;;18.17;100.00;97926.84;5052643;28;20587;-70
2022/09/07 04:54:44;;;;;;;3.90;2.83;;;;;;;18.14;100.00;97920.13;5053070;28;20225;-70
2022/09/07 04:57:11;;;;;;;4.47;2.57;;;;;;;18.15;100.00;97918.25;5053061;28;20233;-70
2022/09/07 04:59:37;;;;;;;5.47;2.97;;;;;;;18.11;100.00;97923.38;5052755;28;20252;-70
2022/09/07 05:02:04;;;;;;;4.53;2.50;;;;;;;18.13;100.00;97926.59;5052862;28;20339;-70
2022/09/07 05:04:30;;;;;;;4.23;2.70;;;;;;;18.12;100.00;97925.00;5052712;28;20228;-70
2022/09/07 05:06:56;;;;;;;5.73;2.80;;;;;;;18.10;100.00;97927.13;5052821;28;20236;-70
2022/09/07 05:09:23;;;;;;;5.37;3.53;;;;;;;18.14;100.00;97928.22;5052224;28;20308;-70
2022/09/07 05:11:49;;;;;;;5.33;3.80;;;;;;;18.15;100.00;97935.19;5052800;28;20229;-70
2022/09/07 05:14:16;;;;;;;10.13;4.80;;;;;;;18.17;100.00;97937.63;5052546;28;20252;-70
2022/09/07 05:16:42;;;;;;;10.10;4.10;;;;;;;18.16;100.00;97931.47;5052188;28;20271;-70
2022/09/07 05:19:12;;;;;;;10.93;4.17;;;;;;;18.19;100.00;97930.91;5052072;28;20664;-70
2022/09/07 05:21:39;;;;;;;7.00;4.27;;;;;;;18.18;100.00;97934.66;5052498;28;20229;-70
2022/09/07 05:24:06;;;;;;;6.70;3.80;;;;;;;18.17;100.00;97927.69;5052126;28;20233;-70
2022/09/07 05:26:35;;;;;;;9.00;4.67;;;;;;;18.17;100.00;97926.84;5052388;28;20220;-70
2022/09/07 05:29:04;;;;;;;6.97;4.17;;;;;;;18.16;100.00;97926.06;5054377;28;20648;-70
2022/09/07 05:31:31;;;;;;;8.50;3.90;;;;;;;18.21;100.00;97927.94;5055732;28;20205;-70
2022/09/07 05:33:59;;;;;;;8.50;3.63;;;;;;;18.22;100.00;97924.16;5055689;28;20260;-70
2022/09/07 05:36:27;;;;;;;10.23;3.60;;;;;;;18.27;100.00;97921.50;5056141;28;20288;-70
2022/09/07 05:38:55;;;;;;;7.67;3.53;;;;;;;18.31;100.00;97934.13;5056201;28;20240;-71
2022/09/07 05:41:26;;;;;;;9.10;3.87;;;;;;;18.39;100.00;97936.31;5055855;28;20252;-70
2022/09/07 05:43:54;;;;;;;6.20;3.47;;;;;;;18.48;100.00;97947.31;5056129;28;20251;-70
2022/09/07 05:46:21;;;;;;;7.80;3.60;;;;;;;18.60;100.00;97951.31;5056221;28;20233;-70
2022/09/07 05:48:47;;;;;;;7.90;3.07;;;;;;;18.72;100.00;97948.34;5055980;28;20301;-70
2022/09/07 05:51:14;;;;;;;6.33;3.40;;;;;;;18.84;100.00;97949.69;5055769;28;20311;-70
2022/09/07 05:53:43;;;;;;;5.83;3.43;;;;;;;18.96;100.00;97949.38;5055984;28;20715;-70
2022/09/07 05:56:10;;;;;;;5.13;2.80;;;;;;;19.15;100.00;97948.50;5055803;28;20286;-70
2022/09/07 05:58:37;;;;;;;5.80;3.47;;;;;;;19.26;100.00;97941.19;5055452;28;20237;-70
2022/09/07 06:01:21;;;;;;;7.87;3.40;;;;;;;19.36;98.75;97941.94;5055442;28;20660;-70
2022/09/07 06:03:48;;;;;;;7.83;3.50;;;;;;;19.44;97.82;97949.44;5056056;28;20290;-70
2022/09/07 06:06:18;;;;;;;5.00;2.83;;;;;;;19.62;95.62;97948.00;5055989;28;20620;-71
2022/09/07 06:08:47;;;;;;;6.10;2.87;;;;;;;19.75;95.43;97943.88;5055757;28;20296;-70
2022/09/07 06:11:17;;;;;;;5.63;3.43;;;;;;;19.81;95.08;97954.34;5054741;28;20294;-69
2022/09/07 06:13:43;;;;;;;5.37;2.90;;;;;;;19.85;95.50;97954.59;5055146;28;20209;-69
2022/09/07 06:16:12;;;;;;;5.17;3.07;;;;;;;19.95;96.03;97954.53;5055050;28;20323;-70
2022/09/07 06:18:41;;;;;;;9.20;5.30;;;;;;;19.97;96.15;97965.84;5055719;28;20194;-69
2022/09/07 06:21:15;;;;;;;6.87;4.47;;;;;;;19.91;94.78;97956.16;5054778;28;20655;-69
2022/09/07 06:23:43;;;;;;;7.57;3.43;;;;;;;19.93;94.77;97948.63;5055249;28;20281;-69
2022/09/07 06:26:10;;;;;;;5.50;3.30;;;;;;;19.91;95.30;97951.59;5055271;28;20206;-69
2022/09/07 06:28:41;;;;;;;10.47;4.20;;;;;;;19.93;95.82;97951.31;5054501;28;20240;-69
2022/09/07 06:31:14;;;;;;;6.77;3.73;;;;;;;20.04;95.05;97958.25;5054977;28;20287;-70
2022/09/07 06:33:43;;;;;;;6.87;3.40;;;;;;;20.26;94.21;97954.03;5055018;28;20656;-69
2022/09/07 06:36:12;;;;;;;7.80;3.90;;;;;;;20.21;95.98;97947.88;5054616;28;20228;-69
2022/09/07 06:38:39;;;;;;;10.73;4.47;;;;;;;20.29;95.07;97942.66;5054728;28;20580;-69
2022/09/07 06:41:07;;;;;;;8.83;4.60;;;;;;;20.31;93.73;97939.69;5054049;28;20259;-69
2022/09/07 06:43:34;;;;;;;7.43;4.03;;;;;;;20.51;91.62;97948.41;5054693;28;20210;-69
2022/09/07 06:46:01;;;;;;;7.87;3.87;;;;;;;20.61;92.18;97942.91;5055000;28;20247;-69
2022/09/07 06:48:29;;;;;;;8.20;4.00;;;;;;;20.61;91.34;97939.41;5054979;28;20233;-70
2022/09/07 06:51:01;;;;;;;15.37;9.00;;;;;;;20.51;91.05;97934.09;5054859;28;20252;-70
2022/09/07 06:53:30;;;;;;;13.87;8.20;;;;;;;20.44;91.67;97941.75;5054834;28;20556;-70
2022/09/07 06:55:57;;;;;;;22.97;18.03;;;;;;;20.41;93.56;97937.72;5054573;28;20316;-69
2022/09/07 06:58:24;;;;;;;11.33;5.37;;;;;;;20.43;93.79;97953.63;5054386;28;20252;-69
2022/09/07 07:00:51;;;;;;;7.83;4.73;;;;;;;20.53;93.09;97956.25;5054053;28;20395;-70
2022/09/07 07:03:18;;;;;;;6.90;4.20;;;;;;;20.50;91.39;97956.78;5054397;28;20232;-69
2022/09/07 07:05:55;;;;;;;7.90;3.90;;;;;;;20.48;91.64;97956.28;5054419;28;20301;-69
2022/09/07 07:08:23;;;;;;;7.57;3.90;;;;;;;20.47;92.79;97957.34;5054232;28;20247;-69
2022/09/07 07:10:50;;;;;;;9.10;3.90;;;;;;;20.53;92.01;97950.84;5054335;28;20648;-69
2022/09/07 07:13:17;;;;;;;8.07;3.93;;;;;;;20.61;91.86;97945.59;5054635;28;20232;-69
2022/09/07 07:15:45;;;;;;;9.70;4.13;;;;;;;20.67;90.00;97952.56;5054141;28;20342;-70
2022/09/07 07:18:12;;;;;;;7.40;5.23;;;;;;;20.70;90.14;97951.22;5054157;28;20217;-69
2022/09/07 07:20:40;;;;;;;8.87;5.07;;;;;;;20.79;88.48;97961.09;5054310;28;20261;-70
2022/09/07 07:23:07;;;;;;;9.63;4.20;;;;;;;20.73;89.84;97966.81;5054162;28;20233;-70
2022/09/07 07:25:35;;;;;;;6.50;3.97;;;;;;;20.86;89.80;97964.28;5054258;28;20236;-70
2022/09/07 07:28:02;;;;;;;6.97;4.30;;;;;;;21.05;88.29;97975.16;5054177;28;20300;-70
2022/09/07 07:30:28;;;;;;;9.50;4.00;;;;;;;21.06;88.85;97972.19;5054242;28;20256;-70
2022/09/07 07:32:56;;;;;;;8.30;3.90;;;;;;;21.08;89.04;97971.88;5054144;28;20239;-70
2022/09/07 07:35:23;;;;;;;7.90;4.03;;;;;;;21.18;88.66;97969.88;5053873;28;20282;-70
2022/09/07 07:37:55;;;;;;;7.03;3.57;;;;;;;21.21;88.84;97982.03;5054182;28;20236;-70
2022/09/07 07:40:22;;;;;;;8.30;3.80;;;;;;;21.39;87.05;97978.56;5053925;28;20257;-70
2022/09/07 07:42:48;;;;;;;8.07;3.33;;;;;;;21.45;85.59;97982.78;5053599;28;20209;-70
2022/09/07 07:45:15;;;;;;;9.60;3.70;;;;;;;21.53;85.62;97977.53;5053998;28;20251;-70
2022/09/07 07:47:41;;;;;;;8.57;3.40;;;;;;;21.72;83.71;97985.72;5053485;28;20369;-69
2022/09/07 07:50:08;;;;;;;14.07;6.40;;;;;;;21.85;80.42;97983.09;5053886;28;20271;-69
2022/09/07 07:52:37;;;;;;;5.77;2.30;;;;;;;22.24;78.06;97990.91;5053659;28;20568;-70
2022/09/07 07:55:04;;;;;;;9.53;3.87;;;;;;;22.22;77.21;97987.66;5053546;28;20696;-70
2022/09/07 07:57:31;;;;;;;10.90;6.80;;;;;;;22.38;77.50;97989.84;5053447;28;20586;-70
2022/09/07 07:59:57;;;;;;;12.90;10.10;;;;;;;22.43;75.69;97994.38;5053764;28;20308;-70
2022/09/07 08:02:24;;;;;;;7.03;2.60;;;;;;;22.41;76.41;97999.28;5053641;28;20252;-70
2022/09/07 08:04:52;;;;;;;9.70;2.87;;;;;;;22.57;74.84;98000.66;5054183;28;20233;-70
2022/09/07 08:07:19;;;;;;;16.75;7.53;;;;;;;22.81;72.72;98010.28;5053523;28;20205;-70
2022/09/07 08:09:47;;;;;;;9.02;2.95;;;;;;;22.98;71.48;98009.69;5053678;28;20320;-70
2022/09/07 08:12:16;;;;;;;8.75;3.28;;;;;;;22.94;70.34;98008.69;5053322;28;20248;-70
2022/09/07 08:14:43;;;;;;;6.30;2.72;;;;;;;22.83;70.84;98007.28;5053530;28;20225;-70
2022/09/07 08:17:11;;;;;;;6.55;2.40;;;;;;;22.93;71.11;98009.78;5053461;28;20248;-71
2022/09/07 08:19:38;;;;;;;10.00;2.80;;;;;;;22.94;69.61;98008.69;5053163;28;20256;-70
2022/09/07 08:22:07;;;;;;;15.40;4.25;;;;;;;22.85;69.67;98007.75;5053037;28;20698;-70
2022/09/07 08:24:34;;;;;;;9.82;2.80;;;;;;;22.95;70.17;98010.28;5053008;28;20564;-70
2022/09/07 08:27:01;;;;;;;8.55;2.58;;;;;;;22.93;70.00;98016.00;5053357;28;20212;-70
2022/09/07 08:29:27;;;;;;;9.07;2.58;;;;;;;22.99;69.66;98008.59;5052867;28;20228;-70
2022/09/07 08:31:54;;;;;;;6.68;2.60;;;;;;;22.91;69.11;98006.56;5053084;28;20715;-70
2022/09/07 08:34:21;;;;;;;6.10;2.70;;;;;;;22.99;69.40;98014.00;5053119;28;20570;-70
2022/09/07 08:36:48;;;;;;;9.50;2.70;;;;;;;23.00;69.53;98012.91;5052739;28;20286;-70
2022/09/07 08:39:14;;;;;;;9.70;3.17;;;;;;;22.92;69.86;98013.63;5052473;28;20586;-70
2022/09/07 08:42:08;;;;;;;11.05;8.52;;;;;;;22.95;70.21;98016.53;5053022;28;20295;-70
2022/09/07 08:44:38;;;;;;;9.60;5.10;;;;;;;22.94;70.34;98019.53;5053129;28;20193;-70
2022/09/07 08:47:32;;;;;;;5.65;2.63;;;;;;;23.22;69.37;98013.88;5051604;28;20215;-70
2022/09/07 08:50:12;;;;;;;9.55;3.53;;;;;;;23.22;68.92;98011.16;5052579;28;20225;-70
2022/09/07 08:52:49;;;;;;;5.30;3.15;;;;;;;23.41;70.12;98011.84;5053073;28;20193;-70
2022/09/07 08:55:55;;;;;;;18.23;14.23;;;;;;;23.31;69.60;98005.81;5053055;28;20260;-70
2022/09/07 08:58:39;;;;;;;14.60;9.77;;;;;;;23.25;69.24;98005.13;5052157;28;20266;-69
2022/09/07 09:01:18;;;;;;;4.13;2.20;;;;;;;23.42;68.71;98004.53;5053052;28;20250;-70
2022/09/07 09:03:47;;;;;;;7.95;4.00;;;;;;;23.49;70.26;97997.59;5054670;28;20209;-70
2022/09/07 09:06:32;;;;;;;5.63;2.38;;;;;;;23.45;67.93;98003.91;5056885;28;20220;-69
2022/09/07 09:09:38;;;;;;;11.75;2.75;;;;;;;23.61;67.50;98002.50;5057633;28;20207;-70
2022/09/07 09:12:19;;;;;;;5.03;1.90;;;;;;;23.64;66.99;98012.72;5045685;28;20671;-70
2022/09/07 09:15:14;;;;;;;6.15;2.90;;;;;;;23.71;66.71;98013.94;5055709;28;20208;-70
2022/09/07 09:17:48;;;;;;;6.47;2.50;;;;;;;23.82;67.20;97995.50;5055471;28;20217;-70
2022/09/07 09:20:38;;;;;;;5.95;3.17;;;;;;;23.87;65.93;97998.09;5057200;28;20231;-70
2022/09/07 09:23:12;;;;;;;5.65;2.35;;;;;;;24.18;64.57;97993.63;5056313;28;20238;-70
2022/09/07 09:25:44;;;;;;;7.45;2.70;;;;;;;24.14;65.27;97989.91;5056786;28;20182;-70
2022/09/07 09:28:12;;;;;;;10.68;4.97;;;;;;;24.09;64.89;97987.31;5056200;28;20185;-70
2022/09/07 09:30:39;;;;;;;11.57;4.80;;;;;;;24.13;65.64;97977.44;5055636;28;20229;-70
2022/09/07 09:33:15;;;;;;;6.93;2.40;;;;;;;24.25;65.22;97985.88;5055875;28;20209;-70
2022/09/07 09:35:43;;;;;;;4.53;2.40;;;;;;;24.60;63.73;97983.09;5056632;28;20751;-70
2022/09/07 09:38:29;;;;;;;9.70;2.70;;;;;;;24.67;63.33;97979.94;5056299;28;20212;-70
2022/09/07 09:40:57;;;;;;;8.95;2.60;;;;;;;24.85;61.71;97974.28;5055856;28;20712;-70
2022/09/07 09:43:27;;;;;;;5.68;2.85;;;;;;;24.94;61.43;97979.75;5056171;28;20213;-70
2022/09/07 09:45:56;;;;;;;6.55;2.38;;;;;;;25.25;60.81;97978.63;5055997;28;20202;-70
2022/09/07 09:48:33;;;;;;;4.00;2.10;;;;;;;25.21;62.13;97982.28;5056066;28;20216;-70
2022/09/07 09:51:02;;;;;;;10.48;2.50;;;;;;;25.25;61.27;97977.81;5056148;28;20224;-71
2022/09/07 09:53:33;;;;;;;7.53;3.10;;;;;;;25.05;60.70;97978.38;5056347;28;20205;-70
2022/09/07 09:56:03;;;;;;;6.05;2.70;;;;;;;24.85;61.83;97979.72;5055736;28;20217;-71
2022/09/07 09:58:33;;;;;;;12.10;2.28;;;;;;;24.69;60.58;97972.28;5054870;28;20205;-70
2022/09/07 10:01:02;;;;;;;5.03;2.28;;;;;;;24.42;61.70;97967.75;5055638;28;20674;-70
2022/09/07 10:03:31;;;;;;;2.55;2.20;;;;;;;24.31;62.74;97962.88;5055771;28;20751;-71
2022/09/07 10:06:00;;;;;;;7.60;2.58;;;;;;;24.50;63.02;97958.84;5055629;28;20675;-70
2022/09/07 10:08:29;;;;;;;10.15;2.72;;;;;;;25.00;61.92;97949.38;5055548;28;20232;-70
2022/09/07 10:10:58;;;;;;;6.93;2.67;;;;;;;25.14;60.60;97954.75;5055515;28;20584;-70
2022/09/07 10:13:34;;;;;;;4.85;2.58;;;;;;;25.20;59.66;97956.19;5055540;28;20669;-70
2022/09/07 10:16:03;;;;;;;4.95;2.40;;;;;;;25.22;60.44;97956.66;5070082;28;20227;-70
2022/09/07 10:18:53;;;;;;;7.32;2.58;;;;;;;25.23;59.57;97950.91;5075748;28;20227;-70
2022/09/07 10:21:32;;;;;;;5.28;2.47;;;;;;;25.40;59.33;97937.38;5075262;28;20193;-70
2022/09/07 10:23:58;;;;;;;5.82;2.40;;;;;;;25.24;61.86;97946.28;5075341;28;20636;-70
2022/09/07 10:26:36;;;;;;;6.13;2.65;;;;;;;24.80;63.81;97943.69;5075545;28;20204;-70
2022/09/07 10:29:18;;;;;;;4.72;2.38;;;;;;;24.81;63.29;97948.00;5075409;28;20193;-70
2022/09/07 10:32:17;;;;;;;9.27;2.75;;;;;;;24.87;63.28;97944.06;5075313;28;20189;-70
2022/09/07 10:35:02;;;;;;;5.03;2.47;;;;;;;24.54;65.42;97934.56;5071261;28;20204;-70
2022/09/07 10:38:16;;;;;;;6.20;2.60;;;;;;;24.48;65.04;97931.19;5075056;28;20678;-70
2022/09/07 10:40:47;;;;;;;6.97;2.83;;;;;;;24.33;65.43;97934.28;5065243;28;20319;-70
2022/09/07 10:43:29;;;;;;;6.82;2.53;;;;;;;24.41;65.27;97933.53;5074671;28;20188;-70
2022/09/07 10:46:14;;;;;;;3.70;2.40;;;;;;;24.39;64.94;97924.91;5074866;28;20189;-70
2022/09/07 10:48:52;;;;;;;8.70;2.72;;;;;;;24.18;64.29;97939.28;5074758;28;20667;-70
2022/09/07 10:51:40;;;;;;;6.22;2.42;;;;;;;24.20;66.28;97928.94;5074665;28;20192;-70
2022/09/07 10:54:23;;;;;;;5.63;2.67;;;;;;;24.08;66.05;97917.81;5075172;28;20189;-70
2022/09/07 10:56:59;;;;;;;5.05;2.42;;;;;;;24.01;66.42;97920.16;5074755;28;20209;-70
2022/09/07 10:59:34;;;;;;;13.00;11.60;;;;;;;23.94;66.22;97925.22;5073929;28;20733;-70
2022/09/07 11:02:17;;;;;;;5.88;2.58;;;;;;;24.05;65.38;97921.13;5073581;28;20195;-71
2022/09/07 11:04:52;;;;;;;55.70;49.72;;;;;;;23.92;66.92;97930.16;5074695;28;20188;-71
2022/09/07 11:07:42;;;;;;;8.50;4.35;;;;;;;23.97;67.36;97930.03;5074581;28;20204;-71
2022/09/07 11:10:15;;;;;;;8.05;6.55;;;;;;;24.06;67.42;97920.81;5074561;28;20228;-70
2022/09/07 11:12:44;;;;;;;7.03;2.97;;;;;;;24.49;65.34;97921.13;5074459;28;20208;-71
2022/09/07 11:15:14;;;;;;;9.90;6.05;;;;;;;24.89;64.28;97923.59;5074412;28;20281;-70
2022/09/07 11:17:52;;;;;;;39.97;35.13;;;;;;;25.20;64.60;97910.72;5074255;28;20208;-71
2022/09/07 11:20:27;;;;;;;13.38;9.68;;;;;;;25.24;62.90;97905.47;5074383;28;20224;-71
2022/09/07 11:23:31;;;;;;;17.50;14.65;;;;;;;25.01;61.72;97896.59;5074619;28;20184;-70
2022/09/07 11:26:14;;;;;;;7.25;3.28;;;;;;;25.16;60.79;97898.06;5071190;28;20663;-71
2022/09/07 11:29:05;;;;;;;6.75;2.45;;;;;;;25.24;61.46;97897.31;5074381;28;20205;-70
2022/09/07 11:31:38;;;;;;;14.05;7.40;;;;;;;25.27;61.07;97893.97;5074407;28;20590;-70
2022/09/07 11:34:20;;;;;;;14.93;11.77;;;;;;;25.19;60.94;97902.91;5074354;28;20188;-70
2022/09/07 11:36:56;;;;;;;5.85;2.90;;;;;;;25.33;60.21;97893.50;5074137;28;20232;-70
2022/09/07 11:39:30;;;;;;;6.53;2.30;;;;;;;25.31;58.69;97887.59;5074054;28;20247;-70
2022/09/07 11:42:02;;;;;;;4.30;2.35;;;;;;;25.63;57.93;97880.88;5074081;28;20197;-70
2022/09/07 11:44:44;;;;;;;9.48;5.55;;;;;;;25.49;58.32;97878.31;5073947;28;20204;-71
2022/09/07 11:47:23;;;;;;;6.85;2.42;;;;;;;25.61;57.91;97870.34;5073947;28;20184;-70
2022/09/07 11:49:53;;;;;;;5.28;2.35;;;;;;;25.64;58.30;97871.63;5074370;28;20224;-70
2022/09/07 11:52:34;;;;;;;5.07;2.17;;;;;;;25.91;53.90;97861.19;5072634;28;20189;-71
2022/09/07 11:55:05;;;;;;;8.35;2.95;;;;;;;25.73;55.12;97869.69;5074382;28;20188;-71